createdAt,value
2022-08-17T00:00:49.296Z,0.00
2022-08-17T00:01:51.701Z,0.00
2022-08-17T00:02:41.103Z,0.00
2022-08-17T00:03:34.551Z,0.00
2022-08-17T00:04:34.523Z,0.00
2022-08-17T00:05:34.507Z,0.00
2022-08-17T00:06:34.504Z,0.00
2022-08-17T00:07:34.501Z,0.00
2022-08-17T00:08:34.495Z,0.00
2022-08-17T00:09:34.481Z,0.00
2022-08-17T00:10:34.463Z,0.00
2022-08-17T00:11:34.449Z,0.00
2022-08-17T00:12:42.681Z,0.00
2022-08-17T00:13:34.437Z,0.00
2022-08-17T00:14:34.454Z,0.00
2022-08-17T00:15:34.408Z,0.00
2022-08-17T00:16:55.812Z,0.00
2022-08-17T00:17:34.396Z,0.00
2022-08-17T00:19:02.456Z,0.00
2022-08-17T00:19:34.372Z,0.00
2022-08-17T00:20:35.020Z,0.00
2022-08-17T00:21:56.417Z,0.00
2022-08-17T00:22:36.811Z,0.00
2022-08-17T00:23:34.315Z,0.00
2022-08-17T00:24:34.311Z,0.00
2022-08-17T00:25:34.300Z,0.00
2022-08-17T00:26:44.303Z,0.00
2022-08-17T00:27:34.285Z,0.00
2022-08-17T00:28:34.265Z,0.00
2022-08-17T00:29:34.259Z,0.00
2022-08-17T00:30:51.190Z,0.00
2022-08-17T00:31:34.256Z,0.00
2022-08-17T00:33:14.104Z,0.00
2022-08-17T00:33:34.222Z,0.00
2022-08-17T00:34:34.202Z,0.00
2022-08-17T00:35:34.202Z,0.00
2022-08-17T00:36:34.460Z,0.00
2022-08-17T00:37:34.184Z,0.00
2022-08-17T00:38:34.347Z,0.00
2022-08-17T00:39:34.252Z,0.00
2022-08-17T00:40:40.671Z,0.00
2022-08-17T00:41:34.272Z,0.00
2022-08-17T00:42:34.150Z,0.00
2022-08-17T00:43:34.096Z,0.00
2022-08-17T00:44:34.090Z,0.00
2022-08-17T00:45:34.085Z,0.00
2022-08-17T00:46:34.109Z,0.00
2022-08-17T00:47:34.080Z,0.00
2022-08-17T00:48:34.070Z,0.00
2022-08-17T00:49:34.032Z,0.00
2022-08-17T00:50:34.031Z,0.00
2022-08-17T00:51:34.021Z,0.00
2022-08-17T00:52:34.000Z,0.00
2022-08-17T00:53:34.011Z,0.00
2022-08-17T00:54:33.984Z,0.00
2022-08-17T00:55:33.971Z,0.00
2022-08-17T00:56:33.970Z,0.00
2022-08-17T00:57:33.956Z,0.00
2022-08-17T00:58:36.076Z,0.00
2022-08-17T00:59:33.925Z,0.00
2022-08-17T01:00:33.940Z,0.00
2022-08-17T01:01:33.973Z,0.00
2022-08-17T01:02:34.927Z,0.00
2022-08-17T01:03:33.906Z,0.00
2022-08-17T01:04:33.900Z,0.00
2022-08-17T01:05:33.878Z,0.00
2022-08-17T01:06:33.860Z,0.00
2022-08-17T01:07:33.847Z,0.00
2022-08-17T01:08:33.833Z,0.00
2022-08-17T01:09:33.844Z,0.00
2022-08-17T05:00:59.811Z,222.00
2022-08-17T05:02:00.777Z,220.00
2022-08-17T05:03:00.741Z,231.00
2022-08-17T05:04:00.745Z,244.00
2022-08-17T05:05:00.737Z,240.00
2022-08-17T05:06:00.775Z,242.00
2022-08-17T05:07:00.698Z,240.00
2022-08-17T05:08:00.688Z,238.00
2022-08-17T05:09:00.680Z,251.00
2022-08-17T05:10:00.676Z,249.00
2022-08-17T05:11:01.456Z,251.00
2022-08-17T05:12:00.670Z,251.00
2022-08-17T05:13:00.652Z,249.00
2022-08-17T05:14:00.635Z,269.00
2022-08-17T05:15:00.620Z,285.00
2022-08-17T05:16:00.609Z,298.00
2022-08-17T05:19:15.902Z,342.00
2022-08-17T05:20:16.874Z,336.00
2022-08-17T05:21:16.865Z,334.00
2022-08-17T05:22:16.843Z,327.00
2022-08-17T05:23:16.861Z,331.00
2022-08-17T05:24:43.141Z,352.00
2022-08-17T05:25:16.821Z,406.00
2022-08-17T05:26:25.604Z,453.00
2022-08-17T05:27:16.818Z,515.00
2022-08-17T05:28:16.814Z,493.00
2022-08-17T05:29:16.798Z,497.00
2022-08-17T05:30:16.773Z,535.00
2022-08-17T05:31:16.757Z,581.00
2022-08-17T05:32:37.920Z,518.00
2022-08-17T05:33:16.759Z,496.00
2022-08-17T05:34:16.724Z,544.00
2022-08-17T05:35:16.732Z,526.00
2022-08-17T05:36:41.623Z,534.00
2022-08-17T05:37:16.702Z,509.00
2022-08-17T05:38:16.681Z,586.00
2022-08-17T05:39:17.425Z,602.00
2022-08-17T05:40:16.664Z,605.00
2022-08-17T05:41:16.687Z,554.00
2022-08-17T05:42:16.636Z,536.00
2022-08-17T05:43:16.649Z,518.00
2022-08-17T05:44:16.658Z,502.00
2022-08-17T05:45:16.623Z,498.00
2022-08-17T05:46:16.600Z,504.00
2022-08-17T05:47:16.598Z,503.00
2022-08-17T05:48:16.569Z,519.00
2022-08-17T05:49:16.585Z,607.00
2022-08-17T05:50:18.175Z,669.00
2022-08-17T05:51:16.558Z,659.00
2022-08-17T05:52:19.883Z,672.00
2022-08-17T05:53:16.522Z,610.00
2022-08-17T05:54:16.520Z,582.00
2022-08-17T05:55:16.531Z,546.00
2022-08-17T05:56:29.493Z,539.00
2022-08-17T05:57:16.495Z,518.00
2022-08-17T05:58:16.469Z,521.00
2022-08-17T05:59:16.458Z,542.00
2022-08-17T06:00:16.652Z,550.00
2022-08-17T06:01:16.491Z,532.00
2022-08-17T06:02:16.423Z,579.00
2022-08-17T06:03:16.418Z,601.00
2022-08-17T06:04:16.414Z,583.00
2022-08-17T06:05:16.392Z,608.00
2022-08-17T06:06:16.402Z,646.00
2022-08-17T06:07:16.373Z,628.00
2022-08-17T06:08:16.392Z,577.00
2022-08-17T06:09:19.813Z,541.00
2022-08-17T06:10:16.345Z,516.00
2022-08-17T06:11:16.340Z,501.00
2022-08-17T06:12:18.976Z,493.00
2022-08-17T06:13:16.312Z,515.00
2022-08-17T06:14:16.310Z,576.00
2022-08-17T06:15:16.300Z,602.00
2022-08-17T06:16:33.392Z,702.00
2022-08-17T06:17:16.274Z,750.00
2022-08-17T06:18:19.143Z,772.00
2022-08-17T06:19:16.250Z,720.00
2022-08-17T06:20:16.237Z,827.00
2022-08-17T06:21:16.237Z,897.00
2022-08-17T06:22:16.246Z,854.00
2022-08-17T06:23:16.203Z,753.00
2022-08-17T06:24:16.232Z,677.00
2022-08-17T06:25:16.194Z,749.00
2022-08-17T06:26:16.228Z,738.00
2022-08-17T06:27:16.168Z,785.00
2022-08-17T06:28:16.180Z,745.00
2022-08-17T06:29:18.629Z,730.00
2022-08-17T06:30:16.135Z,726.00
2022-08-17T06:31:16.125Z,733.00
2022-08-17T06:32:16.114Z,698.00
2022-08-17T06:33:16.115Z,743.00
2022-08-17T06:34:16.123Z,763.00
2022-08-17T06:35:16.079Z,736.00
2022-08-17T06:36:16.272Z,742.00
2022-08-17T06:37:16.077Z,681.00
2022-08-17T06:38:36.929Z,639.00
2022-08-17T06:39:16.058Z,695.00
2022-08-17T06:40:16.142Z,662.00
2022-08-17T06:41:16.021Z,659.00
2022-08-17T06:43:04.105Z,676.00
2022-08-17T06:43:16.006Z,595.00
2022-08-17T06:44:43.402Z,529.00
2022-08-17T06:45:16.007Z,556.00
2022-08-17T06:46:15.960Z,604.00
2022-08-17T06:47:15.962Z,636.00
2022-08-17T06:48:15.981Z,688.00
2022-08-17T06:49:15.950Z,757.00
2022-08-17T06:50:15.921Z,810.00
2022-08-17T06:51:15.901Z,879.00
2022-08-17T06:52:20.416Z,854.00
2022-08-17T06:53:15.905Z,917.00
2022-08-17T06:54:15.880Z,943.00
2022-08-17T06:55:18.095Z,1012.00
2022-08-17T06:56:15.858Z,1112.00
2022-08-17T06:57:15.840Z,1070.00
2022-08-17T06:58:16.919Z,975.00
2022-08-17T06:59:15.830Z,931.00
2022-08-17T07:00:15.845Z,905.00
2022-08-17T07:01:15.850Z,819.00
2022-08-17T07:02:15.805Z,701.00
2022-08-17T07:03:15.776Z,665.00
2022-08-17T07:04:15.776Z,785.00
2022-08-17T07:05:15.759Z,778.00
2022-08-17T07:06:15.778Z,785.00
2022-08-17T07:07:15.755Z,784.00
2022-08-17T07:08:15.738Z,766.00
2022-08-17T07:09:15.721Z,787.00
2022-08-17T07:10:15.704Z,836.00
2022-08-17T07:11:15.707Z,762.00
2022-08-17T07:12:15.712Z,741.00
2022-08-17T07:13:15.684Z,725.00
2022-08-17T07:14:17.527Z,714.00
2022-08-17T07:15:15.658Z,690.00
2022-08-17T07:16:15.670Z,719.00
2022-08-17T07:17:15.636Z,734.00
2022-08-17T07:18:15.637Z,824.00
2022-08-17T07:19:15.617Z,911.00
2022-08-17T07:20:15.599Z,967.00
2022-08-17T07:21:18.538Z,1032.00
2022-08-17T07:22:15.586Z,1011.00
2022-08-17T07:23:15.568Z,965.00
2022-08-17T07:24:28.104Z,909.00
2022-08-17T07:25:16.035Z,930.00
2022-08-17T07:26:15.549Z,894.00
2022-08-17T07:27:15.542Z,855.00
2022-08-17T07:28:15.517Z,865.00
2022-08-17T07:29:15.532Z,942.00
2022-08-17T07:30:15.501Z,973.00
2022-08-17T07:31:15.514Z,1035.00
2022-08-17T07:32:15.474Z,1079.00
2022-08-17T07:33:15.471Z,1066.00
2022-08-17T07:34:15.455Z,1114.00
2022-08-17T07:35:15.708Z,1154.00
2022-08-17T07:36:15.440Z,1166.00
2022-08-17T07:37:15.442Z,1125.00
2022-08-17T07:38:24.857Z,1185.00
2022-08-17T07:39:15.438Z,1236.00
2022-08-17T07:40:16.810Z,1272.00
2022-08-17T07:41:15.379Z,1324.00
2022-08-17T07:42:15.368Z,1391.00
2022-08-17T07:43:15.627Z,1433.00
2022-08-17T07:44:15.360Z,1411.00
2022-08-17T07:45:15.387Z,1302.00
2022-08-17T07:46:15.332Z,1251.00
2022-08-17T07:47:15.315Z,1183.00
2022-08-17T07:48:15.776Z,1141.00
2022-08-17T07:49:15.293Z,1196.00
2022-08-17T07:50:15.291Z,1241.00
2022-08-17T07:51:15.309Z,1301.00
2022-08-17T07:52:48.453Z,1287.00
2022-08-17T07:53:15.259Z,1282.00
2022-08-17T07:54:15.379Z,1255.00
2022-08-17T07:55:15.236Z,1220.00
2022-08-17T07:56:15.237Z,1204.00
2022-08-17T07:57:15.215Z,1240.00
2022-08-17T07:58:15.213Z,1263.00
2022-08-17T07:59:15.196Z,1260.00
2022-08-17T08:00:16.360Z,1267.00
2022-08-17T08:01:15.256Z,1249.00
2022-08-17T08:02:15.199Z,1237.00
2022-08-17T08:03:15.149Z,1204.00
2022-08-17T08:04:19.316Z,1135.00
2022-08-17T08:05:15.143Z,1050.00
2022-08-17T08:06:15.125Z,993.00
2022-08-17T08:07:15.116Z,972.00
2022-08-17T08:08:15.099Z,974.00
2022-08-17T08:09:15.076Z,964.00
2022-08-17T08:10:15.075Z,960.00
2022-08-17T08:11:15.093Z,927.00
2022-08-17T08:12:15.888Z,875.00
2022-08-17T08:13:15.087Z,813.00
2022-08-17T08:14:15.061Z,780.00
2022-08-17T08:15:15.045Z,773.00
2022-08-17T08:16:15.016Z,764.00
2022-08-17T08:17:14.994Z,732.00
2022-08-17T08:18:14.988Z,704.00
2022-08-17T08:19:19.273Z,696.00
2022-08-17T08:20:50.981Z,687.00
2022-08-17T08:21:14.962Z,640.00
2022-08-17T08:22:14.949Z,592.00
2022-08-17T08:23:14.933Z,585.00
2022-08-17T08:24:14.938Z,604.00
2022-08-17T08:25:14.944Z,595.00
2022-08-17T08:26:18.460Z,598.00
2022-08-17T08:27:14.914Z,626.00
2022-08-17T08:28:14.890Z,654.00
2022-08-17T08:29:14.873Z,699.00
2022-08-17T08:30:14.887Z,742.00
2022-08-17T08:31:14.874Z,796.00
2022-08-17T08:32:14.874Z,816.00
2022-08-17T08:33:14.824Z,806.00
2022-08-17T08:35:00.735Z,784.00
2022-08-17T08:35:14.810Z,753.00
2022-08-17T08:36:56.979Z,731.00
2022-08-17T08:37:30.298Z,756.00
2022-08-17T08:38:14.794Z,762.00
2022-08-17T08:39:14.763Z,869.00
2022-08-17T08:40:14.821Z,1032.00
2022-08-17T08:41:14.751Z,1138.00
2022-08-17T08:42:14.739Z,1249.00
2022-08-17T08:43:14.747Z,1348.00
2022-08-17T08:44:14.722Z,1298.00
2022-08-17T08:45:14.705Z,1266.00
2022-08-17T08:46:14.705Z,1151.00
2022-08-17T08:47:14.691Z,1056.00
2022-08-17T08:48:23.085Z,970.00
2022-08-17T08:49:14.670Z,908.00
2022-08-17T08:50:37.645Z,921.00
2022-08-17T08:51:14.667Z,978.00
2022-08-17T08:52:14.629Z,1044.00
2022-08-17T08:53:14.631Z,1115.00
2022-08-17T08:54:14.614Z,1206.00
2022-08-17T08:55:14.622Z,1271.00
2022-08-17T08:56:14.591Z,1305.00
2022-08-17T08:57:33.965Z,1300.00
2022-08-17T08:58:31.564Z,1408.00
2022-08-17T08:59:14.590Z,1381.00
2022-08-17T09:00:14.553Z,1443.00
2022-08-17T09:01:16.623Z,1489.00
2022-08-17T09:02:14.526Z,1574.00
2022-08-17T09:03:14.525Z,1476.00
2022-08-17T09:04:25.224Z,1419.00
2022-08-17T09:05:15.529Z,1289.00
2022-08-17T09:06:32.228Z,1198.00
2022-08-17T09:07:14.478Z,1116.00
2022-08-17T09:08:14.463Z,1030.00
2022-08-17T09:09:14.450Z,926.00
2022-08-17T09:10:14.460Z,819.00
2022-08-17T09:11:14.441Z,921.00
2022-08-17T09:12:14.420Z,936.00
2022-08-17T09:13:14.405Z,896.00
2022-08-17T09:14:21.620Z,884.00
2022-08-17T09:15:14.404Z,901.00
2022-08-17T09:16:14.399Z,891.00
2022-08-17T09:17:14.367Z,878.00
2022-08-17T09:19:00.954Z,922.00
2022-08-17T09:19:14.376Z,948.00
2022-08-17T09:20:14.488Z,965.00
2022-08-17T09:21:14.339Z,943.00
2022-08-17T09:22:14.320Z,992.00
2022-08-17T09:23:14.301Z,1060.00
2022-08-17T09:24:14.297Z,1109.00
2022-08-17T09:25:14.299Z,1086.00
2022-08-17T09:26:14.282Z,1030.00
2022-08-17T09:27:14.276Z,1012.00
2022-08-17T09:28:14.250Z,1044.00
2022-08-17T09:29:14.238Z,1042.00
2022-08-17T09:30:14.231Z,1056.00
2022-08-17T09:31:14.214Z,1042.00
2022-08-17T09:32:14.233Z,1009.00
2022-08-17T09:33:14.199Z,1113.00
2022-08-17T09:34:14.188Z,1206.00
2022-08-17T09:35:14.179Z,1380.00
2022-08-17T09:36:14.177Z,1465.00
2022-08-17T09:37:14.161Z,1688.00
2022-08-17T09:38:14.176Z,1992.00
2022-08-17T09:39:14.133Z,2265.00
2022-08-17T09:40:14.191Z,2207.00
2022-08-17T09:41:14.114Z,2138.00
2022-08-17T09:42:14.103Z,2081.00
2022-08-17T09:43:14.152Z,2139.00
2022-08-17T09:44:23.216Z,2132.00
2022-08-17T09:45:14.078Z,2355.00
2022-08-17T09:46:14.064Z,2226.00
2022-08-17T09:47:14.053Z,2283.00
2022-08-17T09:48:14.048Z,2382.00
2022-08-17T09:49:14.049Z,2337.00
2022-08-17T09:50:14.029Z,2454.00
2022-08-17T09:51:14.012Z,2457.00
2022-08-17T09:52:14.000Z,2471.00
2022-08-17T09:53:13.995Z,2499.00
2022-08-17T09:54:37.651Z,2622.00
2022-08-17T09:55:13.972Z,2683.00
2022-08-17T09:56:13.964Z,2785.00
2022-08-17T09:57:29.026Z,2752.00
2022-08-17T09:58:13.941Z,2321.00
2022-08-17T09:59:13.945Z,2092.00
2022-08-17T10:00:13.926Z,1867.00
2022-08-17T10:01:13.960Z,1840.00
2022-08-17T10:02:13.899Z,1753.00
2022-08-17T10:03:13.882Z,1715.00
2022-08-17T10:04:13.874Z,1807.00
2022-08-17T10:05:13.883Z,1645.00
2022-08-17T10:06:13.867Z,1571.00
2022-08-17T10:07:13.838Z,1626.00
2022-08-17T10:08:13.828Z,1687.00
2022-08-17T10:09:13.818Z,1934.00
2022-08-17T10:10:14.500Z,1993.00
2022-08-17T10:11:13.803Z,2211.00
2022-08-17T10:12:17.067Z,2519.00
2022-08-17T10:13:13.780Z,2411.00
2022-08-17T10:14:37.712Z,2548.00
2022-08-17T10:15:13.766Z,2599.00
2022-08-17T10:16:13.770Z,2385.00
2022-08-17T10:17:13.733Z,2027.00
2022-08-17T10:18:13.736Z,2006.00
2022-08-17T10:19:13.713Z,1989.00
2022-08-17T10:20:13.702Z,2144.00
2022-08-17T10:21:13.704Z,2236.00
2022-08-17T10:22:32.329Z,1995.00
2022-08-17T10:23:13.695Z,1835.00
2022-08-17T10:24:13.663Z,1851.00
2022-08-17T10:25:22.164Z,1910.00
2022-08-17T10:26:13.673Z,1973.00
2022-08-17T10:27:13.647Z,1891.00
2022-08-17T10:28:19.908Z,1988.00
2022-08-17T10:29:13.630Z,2154.00
2022-08-17T10:30:13.602Z,2440.00
2022-08-17T10:32:13.579Z,2632.00
2022-08-17T10:33:13.598Z,2627.00
2022-08-17T10:34:13.562Z,2458.00
2022-08-17T10:35:13.550Z,2535.00
2022-08-17T10:36:13.538Z,2731.00
2022-08-17T10:37:13.529Z,2823.00
2022-08-17T10:38:13.513Z,2609.00
2022-08-17T10:39:13.527Z,2601.00
2022-08-17T10:40:13.555Z,2538.00
2022-08-17T10:41:13.489Z,2554.00
2022-08-17T10:42:13.465Z,2457.00
2022-08-17T10:43:13.466Z,2433.00
2022-08-17T10:44:39.647Z,2346.00
2022-08-17T10:45:13.451Z,2479.00
2022-08-17T10:46:30.394Z,2652.00
2022-08-17T10:47:13.453Z,2594.00
2022-08-17T10:48:13.854Z,2187.00
2022-08-17T10:49:13.394Z,2223.00
2022-08-17T10:50:13.475Z,2943.00
2022-08-17T10:51:13.379Z,3413.00
2022-08-17T10:52:13.368Z,3042.00
2022-08-17T10:53:17.907Z,2718.00
2022-08-17T10:54:13.370Z,2698.00
2022-08-17T10:55:13.336Z,2876.00
2022-08-17T10:56:13.360Z,2192.00
2022-08-17T10:57:13.318Z,1783.00
2022-08-17T10:58:13.311Z,1874.00
2022-08-17T10:59:13.312Z,1893.00
2022-08-17T11:00:13.283Z,1544.00
2022-08-17T11:01:13.435Z,1126.00
2022-08-17T11:02:13.310Z,902.00
2022-08-17T11:03:13.248Z,879.00
2022-08-17T11:04:13.234Z,849.00
2022-08-17T11:05:13.289Z,833.00
2022-08-17T11:06:13.210Z,825.00
2022-08-17T11:07:13.219Z,777.00
2022-08-17T11:08:13.204Z,739.00
2022-08-17T11:09:13.214Z,774.00
2022-08-17T11:10:13.178Z,882.00
2022-08-17T11:11:13.204Z,946.00
2022-08-17T11:12:13.205Z,935.00
2022-08-17T11:13:13.145Z,862.00
2022-08-17T11:14:13.166Z,773.00
2022-08-17T11:15:13.115Z,783.00
2022-08-17T11:16:13.220Z,783.00
2022-08-17T11:17:13.102Z,735.00
2022-08-17T11:18:19.096Z,698.00
2022-08-17T11:19:13.266Z,772.00
2022-08-17T11:20:13.081Z,905.00
2022-08-17T11:21:13.067Z,994.00
2022-08-17T11:22:15.027Z,1079.00
2022-08-17T11:23:13.193Z,1130.00
2022-08-17T11:24:13.368Z,1131.00
2022-08-17T11:25:13.503Z,1227.00
2022-08-17T11:26:13.105Z,1189.00
2022-08-17T11:27:12.999Z,1251.00
2022-08-17T11:28:13.000Z,1391.00
2022-08-17T11:29:12.981Z,1559.00
2022-08-17T11:30:12.963Z,1560.00
2022-08-17T11:31:12.979Z,1627.00
2022-08-17T11:32:12.943Z,1805.00
2022-08-17T11:33:12.930Z,1955.00
2022-08-17T11:34:12.949Z,2359.00
2022-08-17T11:35:12.960Z,2423.00
2022-08-17T11:36:12.913Z,2818.00
2022-08-17T11:37:12.933Z,2781.00
2022-08-17T11:38:16.407Z,2821.00
2022-08-17T11:39:12.878Z,2759.00
2022-08-17T11:40:12.966Z,2040.00
2022-08-17T11:41:12.902Z,1707.00
2022-08-17T11:42:12.837Z,1707.00
2022-08-17T11:43:12.869Z,2255.00
2022-08-17T11:44:12.840Z,2416.00
2022-08-17T11:45:16.237Z,2425.00
2022-08-17T11:46:12.820Z,2455.00
2022-08-17T11:47:12.803Z,2154.00
2022-08-17T11:48:29.160Z,2388.00
2022-08-17T11:49:12.803Z,2342.00
2022-08-17T11:50:12.796Z,2342.00
2022-08-17T11:51:12.761Z,3059.00
2022-08-17T11:52:12.731Z,2925.00
2022-08-17T11:53:12.721Z,2651.00
2022-08-17T11:54:32.178Z,2985.00
2022-08-17T11:55:34.378Z,2794.00
2022-08-17T11:56:12.845Z,2347.00
2022-08-17T11:57:12.700Z,2253.00
2022-08-17T11:58:12.708Z,3644.00
2022-08-17T11:59:12.723Z,4300.00
2022-08-17T12:00:12.656Z,3546.00
2022-08-17T12:01:13.789Z,3144.00
2022-08-17T12:02:12.681Z,1912.00
2022-08-17T12:03:12.677Z,3202.00
2022-08-17T12:04:12.658Z,2747.00
2022-08-17T12:05:12.605Z,2378.00
2022-08-17T12:06:12.594Z,2071.00
2022-08-17T12:07:12.613Z,2627.00
2022-08-17T12:08:12.592Z,3491.00
2022-08-17T12:09:12.597Z,1966.00
2022-08-17T12:10:12.579Z,3644.00
2022-08-17T12:11:12.546Z,2541.00
2022-08-17T12:12:14.222Z,3207.00
2022-08-17T12:13:12.551Z,3254.00
2022-08-17T12:14:17.754Z,3181.00
2022-08-17T12:15:12.616Z,3561.00
2022-08-17T12:16:12.498Z,2483.00
2022-08-17T12:17:12.511Z,2886.00
2022-08-17T12:18:12.464Z,3425.00
2022-08-17T12:19:12.490Z,2868.00
2022-08-17T12:20:12.471Z,2215.00
2022-08-17T12:21:12.443Z,2280.00
2022-08-17T12:22:12.424Z,2455.00
2022-08-17T12:23:12.429Z,2430.00
2022-08-17T12:24:12.396Z,2380.00
2022-08-17T12:25:12.442Z,2401.00
2022-08-17T12:26:12.406Z,2561.00
2022-08-17T12:27:13.227Z,2660.00
2022-08-17T12:28:15.689Z,2733.00
2022-08-17T12:29:18.015Z,2397.00
2022-08-17T12:30:12.377Z,2565.00
2022-08-17T12:31:12.392Z,2523.00
2022-08-17T12:32:12.341Z,2393.00
2022-08-17T12:33:12.356Z,2950.00
2022-08-17T12:34:12.320Z,2921.00
2022-08-17T12:35:12.301Z,2319.00
2022-08-17T12:36:12.372Z,2205.00
2022-08-17T12:37:12.275Z,2167.00
2022-08-17T12:38:32.480Z,2300.00
2022-08-17T12:39:13.921Z,2323.00
2022-08-17T12:40:12.263Z,2193.00
2022-08-17T12:41:12.388Z,2287.00
2022-08-17T12:42:12.234Z,2305.00
2022-08-17T12:43:12.210Z,2478.00
2022-08-17T12:44:12.339Z,2750.00
2022-08-17T12:45:12.197Z,2759.00
2022-08-17T12:46:15.089Z,2854.00
2022-08-17T12:47:12.167Z,2881.00
2022-08-17T12:48:12.153Z,2753.00
2022-08-17T12:49:12.167Z,2784.00
2022-08-17T12:50:29.790Z,2983.00
2022-08-17T12:51:12.130Z,3172.00
2022-08-17T12:52:12.113Z,3473.00
2022-08-17T12:53:12.116Z,3722.00
2022-08-17T12:54:12.118Z,3488.00
2022-08-17T12:55:12.110Z,3287.00
2022-08-17T12:56:12.102Z,3172.00
2022-08-17T12:57:12.067Z,3317.00
2022-08-17T12:58:14.292Z,3258.00
2022-08-17T12:59:12.046Z,3081.00
2022-08-17T13:00:12.021Z,2824.00
2022-08-17T13:01:12.047Z,2740.00
2022-08-17T13:02:12.086Z,2996.00
2022-08-17T13:03:12.578Z,3030.00
2022-08-17T13:04:11.985Z,2840.00
2022-08-17T13:05:12.643Z,2389.00
2022-08-17T13:06:11.975Z,3144.00
2022-08-17T13:07:11.961Z,3193.00
2022-08-17T13:08:11.984Z,3383.00
2022-08-17T13:09:11.962Z,3364.00
2022-08-17T13:10:11.919Z,3315.00
2022-08-17T13:11:11.931Z,3106.00
2022-08-17T13:12:11.900Z,3049.00
2022-08-17T13:13:11.899Z,3159.00
2022-08-17T13:14:11.950Z,4121.00
2022-08-17T13:15:11.867Z,2912.00
2022-08-17T13:16:11.898Z,3332.00
2022-08-17T13:17:13.595Z,3051.00
2022-08-17T13:18:11.852Z,3228.00
2022-08-17T13:19:11.853Z,3056.00
2022-08-17T13:20:11.848Z,3084.00
2022-08-17T13:21:11.824Z,3085.00
2022-08-17T13:22:11.809Z,2679.00
2022-08-17T13:23:12.517Z,2824.00
2022-08-17T13:24:11.862Z,2960.00
2022-08-17T13:25:11.822Z,3051.00
2022-08-17T13:26:11.762Z,2822.00
2022-08-17T13:27:11.756Z,3211.00
2022-08-17T13:28:11.738Z,2459.00
2022-08-17T13:29:11.790Z,2961.00
2022-08-17T13:30:11.752Z,3043.00
2022-08-17T13:31:11.733Z,2986.00
2022-08-17T13:32:13.492Z,2985.00
2022-08-17T13:33:11.785Z,2938.00
2022-08-17T13:34:11.758Z,2967.00
2022-08-17T13:35:15.511Z,3005.00
2022-08-17T13:36:11.673Z,3040.00
2022-08-17T13:37:11.661Z,3228.00
2022-08-17T13:38:11.986Z,3012.00
2022-08-17T13:39:11.625Z,2975.00
2022-08-17T13:40:11.664Z,2914.00
2022-08-17T13:41:11.620Z,2594.00
2022-08-17T13:42:13.677Z,2443.00
2022-08-17T13:43:11.591Z,2231.00
2022-08-17T13:44:11.630Z,2300.00
2022-08-17T13:45:34.258Z,2285.00
2022-08-17T13:46:11.551Z,2327.00
2022-08-17T13:47:11.546Z,2666.00
2022-08-17T13:48:13.582Z,2831.00
2022-08-17T13:49:11.525Z,2583.00
2022-08-17T13:50:11.533Z,2699.00
2022-08-17T13:51:11.813Z,2696.00
2022-08-17T13:52:11.513Z,2949.00
2022-08-17T13:53:11.511Z,2741.00
2022-08-17T13:54:11.463Z,3002.00
2022-08-17T13:55:11.483Z,3191.00
2022-08-17T13:56:33.459Z,3471.00
2022-08-17T13:57:11.446Z,3746.00
2022-08-17T13:58:11.422Z,3994.00
2022-08-17T13:59:11.420Z,3450.00
2022-08-17T14:00:11.450Z,3305.00
2022-08-17T14:01:12.737Z,3305.00
2022-08-17T14:02:11.472Z,3127.00
2022-08-17T14:03:11.373Z,4414.00
2022-08-17T14:04:11.368Z,3965.00
2022-08-17T14:05:11.429Z,4378.00
2022-08-17T14:06:11.421Z,4950.00
2022-08-17T14:07:11.411Z,4619.00
2022-08-17T14:08:11.312Z,4574.00
2022-08-17T14:09:11.314Z,2755.00
2022-08-17T14:10:11.306Z,6098.00
2022-08-17T14:11:11.317Z,4124.00
2022-08-17T14:12:11.299Z,4095.00
2022-08-17T14:13:11.281Z,4116.00
2022-08-17T14:14:11.285Z,4205.00
2022-08-17T14:15:11.254Z,4358.00
2022-08-17T14:16:11.365Z,4891.00
2022-08-17T14:17:11.312Z,4476.00
2022-08-17T14:18:11.242Z,3566.00
2022-08-17T14:19:11.239Z,5273.00
2022-08-17T14:20:11.205Z,5551.00
2022-08-17T14:21:11.193Z,4519.00
2022-08-17T14:22:11.188Z,4615.00
2022-08-17T14:23:11.181Z,4085.00
2022-08-17T14:24:11.215Z,4215.00
2022-08-17T14:25:11.144Z,3830.00
2022-08-17T14:26:11.131Z,3565.00
2022-08-17T14:27:11.135Z,5115.00
2022-08-17T14:28:11.119Z,5997.00
2022-08-17T14:29:14.878Z,6131.00
2022-08-17T14:30:11.115Z,4887.00
2022-08-17T14:31:11.086Z,2520.00
2022-08-17T14:32:11.098Z,4769.00
2022-08-17T14:33:11.068Z,4466.00
2022-08-17T14:34:11.058Z,3133.00
2022-08-17T14:35:11.046Z,4391.00
2022-08-17T14:36:11.073Z,3808.00
2022-08-17T14:37:11.021Z,4266.00
2022-08-17T14:38:11.042Z,2882.00
2022-08-17T14:39:11.032Z,2661.00
2022-08-17T14:40:11.096Z,1324.00
2022-08-17T14:41:11.003Z,5704.00
2022-08-17T14:42:10.992Z,2643.00
2022-08-17T14:43:11.011Z,4839.00
2022-08-17T14:44:10.960Z,4874.00
2022-08-17T14:45:30.155Z,4237.00
2022-08-17T14:46:10.952Z,4969.00
2022-08-17T14:47:11.028Z,3375.00
2022-08-17T14:48:10.914Z,2758.00
2022-08-17T14:49:10.906Z,4726.00
2022-08-17T14:50:10.908Z,4954.00
2022-08-17T14:51:10.886Z,4402.00
2022-08-17T14:52:10.880Z,5165.00
2022-08-17T14:53:10.914Z,5025.00
2022-08-17T14:54:10.851Z,4633.00
2022-08-17T14:55:10.871Z,4272.00
2022-08-17T14:56:10.837Z,4954.00
2022-08-17T14:57:25.171Z,6332.00
2022-08-17T14:58:10.814Z,6131.00
2022-08-17T14:59:10.803Z,3214.00
2022-08-17T15:00:10.794Z,5570.00
2022-08-17T15:01:10.833Z,21518.00
2022-08-17T15:02:10.772Z,27168.00
2022-08-17T15:03:10.761Z,10552.00
2022-08-17T15:04:10.755Z,17147.00
2022-08-17T15:05:10.741Z,20551.00
2022-08-17T15:06:10.743Z,24677.00
2022-08-17T15:07:10.736Z,21037.00
2022-08-17T15:08:10.731Z,22635.00
2022-08-17T15:09:10.703Z,14651.00
2022-08-17T15:10:10.707Z,13394.00
2022-08-17T15:11:14.297Z,18026.00
2022-08-17T15:12:10.686Z,13928.00
2022-08-17T15:13:10.680Z,18496.00
2022-08-17T15:14:10.658Z,15572.00
2022-08-17T15:15:10.661Z,16495.00
2022-08-17T15:16:10.659Z,14165.00
2022-08-17T15:17:10.629Z,16350.00
2022-08-17T15:18:10.668Z,25400.00
2022-08-17T15:19:10.636Z,26785.00
2022-08-17T15:20:14.736Z,21319.00
2022-08-17T15:21:10.587Z,19769.00
2022-08-17T15:22:10.576Z,21876.00
2022-08-17T15:23:10.566Z,26059.00
2022-08-17T15:24:10.565Z,23955.00
2022-08-17T15:25:10.585Z,20942.00
2022-08-17T15:26:10.543Z,22245.00
2022-08-17T15:27:10.524Z,25880.00
2022-08-17T15:28:10.514Z,26011.00
2022-08-17T15:29:10.502Z,21999.00
2022-08-17T15:30:10.498Z,18486.00
2022-08-17T15:31:10.512Z,19452.00
2022-08-17T15:32:10.484Z,23521.00
2022-08-17T15:33:10.465Z,27158.00
2022-08-17T15:34:10.460Z,31821.00
2022-08-17T15:35:10.461Z,24056.00
2022-08-17T15:36:10.458Z,15124.00
2022-08-17T15:37:10.426Z,21626.00
2022-08-17T15:38:12.288Z,28894.00
2022-08-17T15:39:10.404Z,26564.00
2022-08-17T15:40:10.518Z,23164.00
2022-08-17T15:41:10.443Z,18103.00
2022-08-17T15:42:10.377Z,19808.00
2022-08-17T15:43:10.384Z,21442.00
2022-08-17T15:44:10.361Z,21139.00
2022-08-17T15:45:10.359Z,19634.00
2022-08-17T15:46:10.361Z,17155.00
2022-08-17T15:47:10.329Z,18764.00
2022-08-17T15:48:10.322Z,16363.00
2022-08-17T15:49:10.308Z,18309.00
2022-08-17T15:50:10.325Z,20583.00
2022-08-17T15:51:10.290Z,17356.00
2022-08-17T15:52:10.311Z,23300.00
2022-08-17T15:53:10.281Z,13239.00
2022-08-17T15:54:18.931Z,5514.00
2022-08-17T15:55:10.284Z,3211.00
2022-08-17T15:56:10.277Z,2670.00
2022-08-17T15:57:10.262Z,2172.00
2022-08-17T15:58:10.222Z,2060.00
2022-08-17T15:59:10.218Z,1984.00
2022-08-17T16:00:10.208Z,1864.00
2022-08-17T16:01:16.481Z,1931.00
2022-08-17T16:03:16.133Z,1795.00
2022-08-17T16:04:04.143Z,1752.00
2022-08-17T16:04:26.711Z,1680.00
2022-08-17T16:05:10.410Z,1673.00
2022-08-17T16:06:11.041Z,1630.00
2022-08-17T16:07:10.146Z,1585.00
2022-08-17T16:08:10.147Z,1546.00
2022-08-17T16:09:10.129Z,1492.00
2022-08-17T16:10:10.107Z,1444.00
2022-08-17T16:11:10.134Z,1434.00